sensor_id;sensor_type;location;lat;lon;timestamp;P1;durP1;ratioP1;P2;durP2;ratioP2
57057;SDS011;55017;52.848;6.748;2023-03-03T00:02:09;156.95;;;149.93;;
57057;SDS011;55017;52.848;6.748;2023-03-03T00:04:35;158.57;;;151.13;;
57057;SDS011;55017;52.848;6.748;2023-03-03T00:07:01;156.02;;;149.20;;
57057;SDS011;55017;52.848;6.748;2023-03-03T00:09:27;154.30;;;147.50;;
57057;SDS011;55017;52.848;6.748;2023-03-03T00:11:54;155.27;;;148.60;;
57057;SDS011;55017;52.848;6.748;2023-03-03T00:14:38;154.80;;;148.27;;
57057;SDS011;55017;52.848;6.748;2023-03-03T00:17:19;158.15;;;151.27;;
57057;SDS011;55017;52.848;6.748;2023-03-03T00:19:45;158.85;;;152.00;;
57057;SDS011;55017;52.848;6.748;2023-03-03T00:22:13;155.68;;;149.18;;
57057;SDS011;55017;52.848;6.748;2023-03-03T00:24:40;154.20;;;147.30;;
57057;SDS011;55017;52.848;6.748;2023-03-03T00:27:10;155.27;;;148.27;;
57057;SDS011;55017;52.848;6.748;2023-03-03T00:29:40;155.77;;;149.07;;
57057;SDS011;55017;52.848;6.748;2023-03-03T00:34:40;154.43;;;147.90;;
57057;SDS011;55017;52.848;6.748;2023-03-03T00:37:18;159.77;;;152.38;;
57057;SDS011;55017;52.848;6.748;2023-03-03T00:39:44;156.82;;;149.85;;
57057;SDS011;55017;52.848;6.748;2023-03-03T00:42:11;155.73;;;148.93;;
57057;SDS011;55017;52.848;6.748;2023-03-03T00:44:42;151.82;;;145.38;;
57057;SDS011;55017;52.848;6.748;2023-03-03T00:49:41;152.02;;;145.63;;
57057;SDS011;55017;52.848;6.748;2023-03-03T00:52:13;157.48;;;150.45;;
57057;SDS011;55017;52.848;6.748;2023-03-03T00:54:39;157.35;;;149.88;;
57057;SDS011;55017;52.848;6.748;2023-03-03T00:57:05;156.75;;;149.75;;
57057;SDS011;55017;52.848;6.748;2023-03-03T00:59:31;158.40;;;151.43;;
57057;SDS011;55017;52.848;6.748;2023-03-03T01:01:57;155.90;;;148.93;;
57057;SDS011;55017;52.848;6.748;2023-03-03T01:04:23;159.15;;;151.88;;
57057;SDS011;55017;52.848;6.748;2023-03-03T01:06:49;154.05;;;147.25;;
57057;SDS011;55017;52.848;6.748;2023-03-03T01:09:15;156.20;;;149.35;;
57057;SDS011;55017;52.848;6.748;2023-03-03T01:11:41;155.85;;;148.85;;
57057;SDS011;55017;52.848;6.748;2023-03-03T01:14:07;159.65;;;152.45;;
57057;SDS011;55017;52.848;6.748;2023-03-03T01:16:33;158.75;;;151.75;;
57057;SDS011;55017;52.848;6.748;2023-03-03T01:18:59;160.23;;;152.50;;
57057;SDS011;55017;52.848;6.748;2023-03-03T01:21:25;158.27;;;151.02;;
57057;SDS011;55017;52.848;6.748;2023-03-03T01:23:51;156.00;;;148.80;;
57057;SDS011;55017;52.848;6.748;2023-03-03T01:26:17;159.68;;;152.45;;
57057;SDS011;55017;52.848;6.748;2023-03-03T01:28:43;159.27;;;151.82;;
57057;SDS011;55017;52.848;6.748;2023-03-03T01:31:09;156.32;;;149.05;;
57057;SDS011;55017;52.848;6.748;2023-03-03T01:33:36;158.18;;;150.77;;
57057;SDS011;55017;52.848;6.748;2023-03-03T01:36:02;154.02;;;146.70;;
57057;SDS011;55017;52.848;6.748;2023-03-03T01:38:29;158.82;;;151.40;;
57057;SDS011;55017;52.848;6.748;2023-03-03T01:40:56;157.65;;;150.07;;
57057;SDS011;55017;52.848;6.748;2023-03-03T01:43:25;153.02;;;145.50;;
57057;SDS011;55017;52.848;6.748;2023-03-03T01:48:22;154.45;;;146.52;;
57057;SDS011;55017;52.848;6.748;2023-03-03T01:53:17;156.07;;;148.77;;
57057;SDS011;55017;52.848;6.748;2023-03-03T01:55:44;156.70;;;149.07;;
57057;SDS011;55017;52.848;6.748;2023-03-03T01:58:13;158.60;;;149.38;;
57057;SDS011;55017;52.848;6.748;2023-03-03T02:00:41;156.40;;;149.13;;
57057;SDS011;55017;52.848;6.748;2023-03-03T02:03:09;157.52;;;149.27;;
57057;SDS011;55017;52.848;6.748;2023-03-03T02:05:36;158.70;;;150.40;;
57057;SDS011;55017;52.848;6.748;2023-03-03T02:08:02;155.05;;;145.95;;
57057;SDS011;55017;52.848;6.748;2023-03-03T02:10:28;156.68;;;148.32;;
57057;SDS011;55017;52.848;6.748;2023-03-03T02:12:55;157.48;;;146.35;;
57057;SDS011;55017;52.848;6.748;2023-03-03T02:15:29;156.32;;;147.43;;
57057;SDS011;55017;52.848;6.748;2023-03-03T02:18:05;156.83;;;148.10;;
57057;SDS011;55017;52.848;6.748;2023-03-03T02:23:21;161.90;;;150.20;;
57057;SDS011;55017;52.848;6.748;2023-03-03T02:28:23;158.90;;;148.27;;
57057;SDS011;55017;52.848;6.748;2023-03-03T02:30:51;156.60;;;148.25;;
57057;SDS011;55017;52.848;6.748;2023-03-03T02:33:19;157.90;;;147.18;;
57057;SDS011;55017;52.848;6.748;2023-03-03T02:35:45;159.32;;;150.23;;
57057;SDS011;55017;52.848;6.748;2023-03-03T02:38:16;160.15;;;150.80;;
57057;SDS011;55017;52.848;6.748;2023-03-03T02:41:02;156.52;;;146.13;;
57057;SDS011;55017;52.848;6.748;2023-03-03T02:43:35;158.60;;;146.30;;
57057;SDS011;55017;52.848;6.748;2023-03-03T02:46:04;159.57;;;148.65;;
57057;SDS011;55017;52.848;6.748;2023-03-03T02:48:30;157.15;;;146.23;;
57057;SDS011;55017;52.848;6.748;2023-03-03T02:50:56;159.60;;;147.60;;
57057;SDS011;55017;52.848;6.748;2023-03-03T02:53:22;162.18;;;150.45;;
57057;SDS011;55017;52.848;6.748;2023-03-03T02:55:48;159.20;;;148.30;;
57057;SDS011;55017;52.848;6.748;2023-03-03T02:58:14;160.85;;;148.25;;
57057;SDS011;55017;52.848;6.748;2023-03-03T03:00:40;157.82;;;147.73;;
57057;SDS011;55017;52.848;6.748;2023-03-03T03:03:06;161.25;;;148.02;;
57057;SDS011;55017;52.848;6.748;2023-03-03T03:05:32;160.73;;;149.98;;
57057;SDS011;55017;52.848;6.748;2023-03-03T03:07:58;156.63;;;146.88;;
57057;SDS011;55017;52.848;6.748;2023-03-03T03:10:24;159.07;;;147.77;;
57057;SDS011;55017;52.848;6.748;2023-03-03T03:12:50;166.18;;;152.20;;
57057;SDS011;55017;52.848;6.748;2023-03-03T03:15:16;161.75;;;150.63;;
57057;SDS011;55017;52.848;6.748;2023-03-03T03:17:43;159.60;;;148.32;;
57057;SDS011;55017;52.848;6.748;2023-03-03T03:20:09;169.30;;;154.55;;
57057;SDS011;55017;52.848;6.748;2023-03-03T03:22:35;163.25;;;151.63;;
57057;SDS011;55017;52.848;6.748;2023-03-03T03:25:01;160.07;;;148.40;;
57057;SDS011;55017;52.848;6.748;2023-03-03T03:27:27;163.63;;;149.60;;
57057;SDS011;55017;52.848;6.748;2023-03-03T03:29:53;159.07;;;148.32;;
57057;SDS011;55017;52.848;6.748;2023-03-03T03:32:19;199.48;;;153.82;;
57057;SDS011;55017;52.848;6.748;2023-03-03T03:34:45;164.60;;;150.13;;
57057;SDS011;55017;52.848;6.748;2023-03-03T03:37:11;161.48;;;150.70;;
57057;SDS011;55017;52.848;6.748;2023-03-03T03:39:37;168.23;;;152.38;;
57057;SDS011;55017;52.848;6.748;2023-03-03T03:42:03;168.60;;;152.05;;
57057;SDS011;55017;52.848;6.748;2023-03-03T03:44:29;204.45;;;155.38;;
57057;SDS011;55017;52.848;6.748;2023-03-03T03:46:55;170.45;;;154.95;;
57057;SDS011;55017;52.848;6.748;2023-03-03T03:49:21;165.80;;;151.40;;
57057;SDS011;55017;52.848;6.748;2023-03-03T03:51:47;161.48;;;149.93;;
57057;SDS011;55017;52.848;6.748;2023-03-03T03:54:13;166.65;;;151.00;;
57057;SDS011;55017;52.848;6.748;2023-03-03T03:56:39;172.07;;;153.63;;
57057;SDS011;55017;52.848;6.748;2023-03-03T03:59:05;165.95;;;151.75;;
57057;SDS011;55017;52.848;6.748;2023-03-03T04:01:32;159.30;;;147.48;;
57057;SDS011;55017;52.848;6.748;2023-03-03T04:03:58;162.45;;;149.43;;
57057;SDS011;55017;52.848;6.748;2023-03-03T04:06:24;166.88;;;152.40;;
57057;SDS011;55017;52.848;6.748;2023-03-03T04:08:50;170.10;;;151.88;;
57057;SDS011;55017;52.848;6.748;2023-03-03T04:11:16;166.75;;;152.18;;
57057;SDS011;55017;52.848;6.748;2023-03-03T04:13:42;162.52;;;150.93;;
57057;SDS011;55017;52.848;6.748;2023-03-03T04:16:08;166.18;;;153.38;;
57057;SDS011;55017;52.848;6.748;2023-03-03T04:18:34;165.00;;;153.52;;
57057;SDS011;55017;52.848;6.748;2023-03-03T04:21:00;162.50;;;150.75;;
57057;SDS011;55017;52.848;6.748;2023-03-03T04:23:26;164.13;;;150.50;;
57057;SDS011;55017;52.848;6.748;2023-03-03T04:25:52;164.95;;;149.32;;
57057;SDS011;55017;52.848;6.748;2023-03-03T04:28:18;161.50;;;147.93;;
57057;SDS011;55017;52.848;6.748;2023-03-03T04:30:45;162.00;;;149.57;;
57057;SDS011;55017;52.848;6.748;2023-03-03T04:33:11;166.70;;;151.25;;
57057;SDS011;55017;52.848;6.748;2023-03-03T04:35:37;170.75;;;151.45;;
57057;SDS011;55017;52.848;6.748;2023-03-03T04:38:03;166.82;;;150.38;;
57057;SDS011;55017;52.848;6.748;2023-03-03T04:40:30;165.23;;;149.55;;
57057;SDS011;55017;52.848;6.748;2023-03-03T04:42:56;159.23;;;147.20;;
57057;SDS011;55017;52.848;6.748;2023-03-03T04:45:22;223.52;;;156.02;;
57057;SDS011;55017;52.848;6.748;2023-03-03T04:47:48;160.35;;;147.20;;
57057;SDS011;55017;52.848;6.748;2023-03-03T04:50:15;171.85;;;154.30;;
57057;SDS011;55017;52.848;6.748;2023-03-03T04:52:41;161.82;;;149.32;;
57057;SDS011;55017;52.848;6.748;2023-03-03T04:55:07;165.20;;;151.60;;
57057;SDS011;55017;52.848;6.748;2023-03-03T04:57:33;168.50;;;152.88;;
57057;SDS011;55017;52.848;6.748;2023-03-03T04:59:59;164.65;;;150.20;;
57057;SDS011;55017;52.848;6.748;2023-03-03T05:02:25;165.82;;;151.85;;
57057;SDS011;55017;52.848;6.748;2023-03-03T05:04:51;164.43;;;151.55;;
57057;SDS011;55017;52.848;6.748;2023-03-03T05:07:17;163.35;;;149.93;;
57057;SDS011;55017;52.848;6.748;2023-03-03T05:09:44;201.85;;;153.05;;
57057;SDS011;55017;52.848;6.748;2023-03-03T05:12:10;164.93;;;149.48;;
57057;SDS011;55017;52.848;6.748;2023-03-03T05:14:36;163.77;;;147.90;;
57057;SDS011;55017;52.848;6.748;2023-03-03T05:17:02;161.48;;;147.07;;
57057;SDS011;55017;52.848;6.748;2023-03-03T05:19:29;282.77;;;155.93;;
57057;SDS011;55017;52.848;6.748;2023-03-03T05:21:55;162.60;;;148.05;;
57057;SDS011;55017;52.848;6.748;2023-03-03T05:24:22;161.45;;;146.10;;
57057;SDS011;55017;52.848;6.748;2023-03-03T05:26:48;160.40;;;148.50;;
57057;SDS011;55017;52.848;6.748;2023-03-03T05:29:14;168.63;;;151.48;;
57057;SDS011;55017;52.848;6.748;2023-03-03T05:31:40;163.93;;;150.05;;
57057;SDS011;55017;52.848;6.748;2023-03-03T05:34:06;207.60;;;156.45;;
57057;SDS011;55017;52.848;6.748;2023-03-03T05:36:33;162.40;;;149.15;;
57057;SDS011;55017;52.848;6.748;2023-03-03T05:38:59;173.48;;;155.60;;
57057;SDS011;55017;52.848;6.748;2023-03-03T05:41:25;163.20;;;148.30;;
57057;SDS011;55017;52.848;6.748;2023-03-03T05:43:51;160.63;;;149.27;;
57057;SDS011;55017;52.848;6.748;2023-03-03T05:46:17;170.27;;;152.45;;
57057;SDS011;55017;52.848;6.748;2023-03-03T05:48:43;168.10;;;151.25;;
57057;SDS011;55017;52.848;6.748;2023-03-03T05:51:09;200.43;;;149.90;;
57057;SDS011;55017;52.848;6.748;2023-03-03T05:53:35;168.48;;;150.85;;
57057;SDS011;55017;52.848;6.748;2023-03-03T05:56:02;162.13;;;148.60;;
57057;SDS011;55017;52.848;6.748;2023-03-03T05:58:28;163.13;;;149.43;;
57057;SDS011;55017;52.848;6.748;2023-03-03T06:00:54;157.80;;;148.45;;
57057;SDS011;55017;52.848;6.748;2023-03-03T06:03:20;162.40;;;149.43;;
57057;SDS011;55017;52.848;6.748;2023-03-03T06:05:46;158.88;;;147.70;;
57057;SDS011;55017;52.848;6.748;2023-03-03T06:08:12;159.30;;;148.20;;
57057;SDS011;55017;52.848;6.748;2023-03-03T06:10:38;157.07;;;147.15;;
57057;SDS011;55017;52.848;6.748;2023-03-03T06:13:04;160.60;;;150.25;;
57057;SDS011;55017;52.848;6.748;2023-03-03T06:15:30;162.70;;;149.98;;
57057;SDS011;55017;52.848;6.748;2023-03-03T06:17:56;156.73;;;144.13;;
57057;SDS011;55017;52.848;6.748;2023-03-03T06:20:22;157.18;;;144.82;;
57057;SDS011;55017;52.848;6.748;2023-03-03T06:22:48;155.90;;;146.10;;
57057;SDS011;55017;52.848;6.748;2023-03-03T06:25:14;159.70;;;147.13;;
57057;SDS011;55017;52.848;6.748;2023-03-03T06:27:40;154.65;;;143.65;;
57057;SDS011;55017;52.848;6.748;2023-03-03T06:30:06;159.18;;;146.88;;
57057;SDS011;55017;52.848;6.748;2023-03-03T06:32:32;156.73;;;146.95;;
57057;SDS011;55017;52.848;6.748;2023-03-03T06:34:58;151.13;;;142.68;;
57057;SDS011;55017;52.848;6.748;2023-03-03T06:37:24;157.57;;;147.45;;
57057;SDS011;55017;52.848;6.748;2023-03-03T06:39:50;151.70;;;144.02;;
57057;SDS011;55017;52.848;6.748;2023-03-03T06:42:17;154.07;;;144.00;;
57057;SDS011;55017;52.848;6.748;2023-03-03T06:44:43;155.02;;;145.30;;
57057;SDS011;55017;52.848;6.748;2023-03-03T06:47:09;152.43;;;144.70;;
57057;SDS011;55017;52.848;6.748;2023-03-03T06:49:35;151.30;;;142.57;;
57057;SDS011;55017;52.848;6.748;2023-03-03T06:52:07;151.70;;;142.32;;
57057;SDS011;55017;52.848;6.748;2023-03-03T06:54:34;152.20;;;143.35;;
57057;SDS011;55017;52.848;6.748;2023-03-03T06:57:01;149.77;;;142.63;;
57057;SDS011;55017;52.848;6.748;2023-03-03T06:59:31;152.63;;;143.18;;
57057;SDS011;55017;52.848;6.748;2023-03-03T07:01:57;153.00;;;144.57;;
57057;SDS011;55017;52.848;6.748;2023-03-03T07:04:28;150.20;;;141.98;;
57057;SDS011;55017;52.848;6.748;2023-03-03T07:06:56;151.52;;;141.75;;
57057;SDS011;55017;52.848;6.748;2023-03-03T07:09:27;148.98;;;142.15;;
57057;SDS011;55017;52.848;6.748;2023-03-03T07:12:15;149.35;;;141.75;;
57057;SDS011;55017;52.848;6.748;2023-03-03T07:14:44;150.23;;;142.43;;
57057;SDS011;55017;52.848;6.748;2023-03-03T07:17:13;151.32;;;143.30;;
57057;SDS011;55017;52.848;6.748;2023-03-03T07:19:40;149.43;;;141.13;;
57057;SDS011;55017;52.848;6.748;2023-03-03T07:22:11;152.00;;;142.70;;
57057;SDS011;55017;52.848;6.748;2023-03-03T07:24:38;149.02;;;140.95;;
57057;SDS011;55017;52.848;6.748;2023-03-03T07:29:31;150.27;;;143.18;;
57057;SDS011;55017;52.848;6.748;2023-03-03T07:31:58;149.70;;;142.85;;
57057;SDS011;55017;52.848;6.748;2023-03-03T07:34:28;148.70;;;141.60;;
57057;SDS011;55017;52.848;6.748;2023-03-03T07:37:00;145.45;;;139.05;;
57057;SDS011;55017;52.848;6.748;2023-03-03T07:39:37;150.45;;;143.00;;
57057;SDS011;55017;52.848;6.748;2023-03-03T07:44:45;150.45;;;143.45;;
57057;SDS011;55017;52.848;6.748;2023-03-03T07:49:45;151.65;;;145.32;;
57057;SDS011;55017;52.848;6.748;2023-03-03T07:52:19;149.18;;;141.95;;
57057;SDS011;55017;52.848;6.748;2023-03-03T07:54:48;150.05;;;143.00;;
57057;SDS011;55017;52.848;6.748;2023-03-03T07:57:20;152.95;;;144.77;;
57057;SDS011;55017;52.848;6.748;2023-03-03T08:00:01;148.95;;;142.18;;
57057;SDS011;55017;52.848;6.748;2023-03-03T08:02:36;151.00;;;143.52;;
57057;SDS011;55017;52.848;6.748;2023-03-03T08:07:49;151.38;;;144.32;;
57057;SDS011;55017;52.848;6.748;2023-03-03T08:10:34;148.65;;;141.98;;
57057;SDS011;55017;52.848;6.748;2023-03-03T08:13:01;148.75;;;142.40;;
57057;SDS011;55017;52.848;6.748;2023-03-03T08:15:35;149.60;;;142.93;;
57057;SDS011;55017;52.848;6.748;2023-03-03T08:18:08;149.70;;;143.25;;
57057;SDS011;55017;52.848;6.748;2023-03-03T08:20:51;147.10;;;140.23;;
57057;SDS011;55017;52.848;6.748;2023-03-03T08:23:18;145.68;;;139.00;;
57057;SDS011;55017;52.848;6.748;2023-03-03T08:25:44;147.00;;;140.05;;
57057;SDS011;55017;52.848;6.748;2023-03-03T08:28:10;146.75;;;139.77;;
57057;SDS011;55017;52.848;6.748;2023-03-03T08:30:38;146.10;;;139.77;;
57057;SDS011;55017;52.848;6.748;2023-03-03T08:33:04;146.32;;;140.63;;
57057;SDS011;55017;52.848;6.748;2023-03-03T08:35:30;151.02;;;142.63;;
57057;SDS011;55017;52.848;6.748;2023-03-03T08:37:56;146.20;;;138.90;;
57057;SDS011;55017;52.848;6.748;2023-03-03T08:40:22;147.73;;;142.00;;
57057;SDS011;55017;52.848;6.748;2023-03-03T08:42:48;143.73;;;138.00;;
57057;SDS011;55017;52.848;6.748;2023-03-03T08:45:14;148.10;;;140.80;;
57057;SDS011;55017;52.848;6.748;2023-03-03T08:47:40;144.90;;;139.32;;
57057;SDS011;55017;52.848;6.748;2023-03-03T08:50:07;147.32;;;141.27;;
57057;SDS011;55017;52.848;6.748;2023-03-03T08:52:42;146.73;;;141.18;;
57057;SDS011;55017;52.848;6.748;2023-03-03T08:55:09;147.25;;;139.85;;
57057;SDS011;55017;52.848;6.748;2023-03-03T08:57:35;142.98;;;137.68;;
57057;SDS011;55017;52.848;6.748;2023-03-03T09:00:01;146.20;;;140.90;;
57057;SDS011;55017;52.848;6.748;2023-03-03T09:02:27;141.98;;;136.95;;
57057;SDS011;55017;52.848;6.748;2023-03-03T09:04:53;146.80;;;141.63;;
57057;SDS011;55017;52.848;6.748;2023-03-03T09:07:19;145.93;;;139.98;;
57057;SDS011;55017;52.848;6.748;2023-03-03T09:09:45;145.82;;;140.20;;
57057;SDS011;55017;52.848;6.748;2023-03-03T09:12:16;144.05;;;138.77;;
57057;SDS011;55017;52.848;6.748;2023-03-03T09:14:42;147.48;;;141.15;;
57057;SDS011;55017;52.848;6.748;2023-03-03T09:17:18;148.15;;;142.73;;
57057;SDS011;55017;52.848;6.748;2023-03-03T09:19:50;144.27;;;138.65;;
57057;SDS011;55017;52.848;6.748;2023-03-03T09:22:23;144.15;;;138.48;;
57057;SDS011;55017;52.848;6.748;2023-03-03T09:24:49;147.48;;;141.85;;
57057;SDS011;55017;52.848;6.748;2023-03-03T09:27:18;148.98;;;143.32;;
57057;SDS011;55017;52.848;6.748;2023-03-03T09:29:47;148.15;;;142.55;;
57057;SDS011;55017;52.848;6.748;2023-03-03T09:32:56;146.68;;;140.88;;
57057;SDS011;55017;52.848;6.748;2023-03-03T09:37:51;145.55;;;140.13;;
57057;SDS011;55017;52.848;6.748;2023-03-03T09:40:53;148.13;;;142.65;;
57057;SDS011;55017;52.848;6.748;2023-03-03T09:50:57;144.20;;;138.68;;
57057;SDS011;55017;52.848;6.748;2023-03-03T09:53:29;142.45;;;137.02;;
57057;SDS011;55017;52.848;6.748;2023-03-03T09:56:06;147.48;;;141.98;;
57057;SDS011;55017;52.848;6.748;2023-03-03T09:58:46;144.30;;;139.02;;
57057;SDS011;55017;52.848;6.748;2023-03-03T10:06:13;143.02;;;137.43;;
57057;SDS011;55017;52.848;6.748;2023-03-03T10:11:27;143.90;;;138.70;;
57057;SDS011;55017;52.848;6.748;2023-03-03T10:16:43;145.45;;;140.45;;
57057;SDS011;55017;52.848;6.748;2023-03-03T10:21:54;144.10;;;138.82;;
57057;SDS011;55017;52.848;6.748;2023-03-03T10:24:26;141.10;;;135.98;;
57057;SDS011;55017;52.848;6.748;2023-03-03T10:32:01;141.15;;;136.10;;
57057;SDS011;55017;52.848;6.748;2023-03-03T10:39:49;140.05;;;134.98;;
57057;SDS011;55017;52.848;6.748;2023-03-03T10:45:05;139.93;;;134.50;;
57057;SDS011;55017;52.848;6.748;2023-03-03T10:57:48;138.80;;;134.10;;
57057;SDS011;55017;52.848;6.748;2023-03-03T11:00:23;142.57;;;137.48;;
57057;SDS011;55017;52.848;6.748;2023-03-03T11:08:06;140.88;;;136.02;;
57057;SDS011;55017;52.848;6.748;2023-03-03T11:10:48;143.13;;;138.20;;
57057;SDS011;55017;52.848;6.748;2023-03-03T11:13:20;142.55;;;137.70;;
57057;SDS011;55017;52.848;6.748;2023-03-03T11:18:24;140.90;;;136.00;;
57057;SDS011;55017;52.848;6.748;2023-03-03T11:21:02;142.25;;;137.13;;
57057;SDS011;55017;52.848;6.748;2023-03-03T11:26:07;136.20;;;131.63;;
57057;SDS011;55017;52.848;6.748;2023-03-03T11:31:37;140.27;;;135.38;;
57057;SDS011;55017;52.848;6.748;2023-03-03T11:36:36;137.93;;;133.32;;
57057;SDS011;55017;52.848;6.748;2023-03-03T11:39:06;143.10;;;138.07;;
57057;SDS011;55017;52.848;6.748;2023-03-03T11:41:35;137.25;;;132.55;;
57057;SDS011;55017;52.848;6.748;2023-03-03T11:44:26;138.07;;;133.30;;
57057;SDS011;55017;52.848;6.748;2023-03-03T11:46:50;139.93;;;135.07;;
57057;SDS011;55017;52.848;6.748;2023-03-03T11:49:19;139.93;;;135.10;;
57057;SDS011;55017;52.848;6.748;2023-03-03T11:54:18;139.70;;;134.75;;
57057;SDS011;55017;52.848;6.748;2023-03-03T11:56:46;138.65;;;133.75;;
57057;SDS011;55017;52.848;6.748;2023-03-03T11:59:16;138.75;;;133.85;;
57057;SDS011;55017;52.848;6.748;2023-03-03T12:04:31;139.82;;;134.95;;
57057;SDS011;55017;52.848;6.748;2023-03-03T12:16:54;139.90;;;135.15;;
57057;SDS011;55017;52.848;6.748;2023-03-03T12:21:55;137.68;;;133.18;;
57057;SDS011;55017;52.848;6.748;2023-03-03T12:27:01;136.52;;;132.02;;
57057;SDS011;55017;52.848;6.748;2023-03-03T12:29:40;139.20;;;134.50;;
57057;SDS011;55017;52.848;6.748;2023-03-03T12:35:19;136.77;;;132.48;;
57057;SDS011;55017;52.848;6.748;2023-03-03T12:37:45;131.07;;;126.88;;
57057;SDS011;55017;52.848;6.748;2023-03-03T12:40:15;132.18;;;127.80;;
57057;SDS011;55017;52.848;6.748;2023-03-03T12:45:25;133.93;;;129.48;;
57057;SDS011;55017;52.848;6.748;2023-03-03T12:47:57;134.40;;;129.85;;
57057;SDS011;55017;52.848;6.748;2023-03-03T12:50:35;134.63;;;130.20;;
57057;SDS011;55017;52.848;6.748;2023-03-03T12:53:12;137.57;;;132.88;;
57057;SDS011;55017;52.848;6.748;2023-03-03T12:55:46;135.60;;;131.17;;
57057;SDS011;55017;52.848;6.748;2023-03-03T13:00:45;133.63;;;129.30;;
57057;SDS011;55017;52.848;6.748;2023-03-03T13:03:20;132.27;;;127.97;;
57057;SDS011;55017;52.848;6.748;2023-03-03T13:05:54;133.57;;;129.25;;
57057;SDS011;55017;52.848;6.748;2023-03-03T13:08:25;135.95;;;131.55;;
57057;SDS011;55017;52.848;6.748;2023-03-03T13:11:18;132.18;;;127.75;;
57057;SDS011;55017;52.848;6.748;2023-03-03T13:13:52;131.88;;;127.68;;
57057;SDS011;55017;52.848;6.748;2023-03-03T13:19:07;131.13;;;126.72;;
57057;SDS011;55017;52.848;6.748;2023-03-03T13:21:39;131.85;;;127.55;;
57057;SDS011;55017;52.848;6.748;2023-03-03T13:24:21;133.98;;;129.57;;
57057;SDS011;55017;52.848;6.748;2023-03-03T13:26:50;135.48;;;131.05;;
57057;SDS011;55017;52.848;6.748;2023-03-03T13:29:19;134.43;;;130.02;;
57057;SDS011;55017;52.848;6.748;2023-03-03T13:34:19;131.05;;;126.85;;
57057;SDS011;55017;52.848;6.748;2023-03-03T13:36:52;131.23;;;126.90;;
57057;SDS011;55017;52.848;6.748;2023-03-03T13:39:22;136.40;;;131.98;;
57057;SDS011;55017;52.848;6.748;2023-03-03T13:42:00;132.80;;;128.40;;
57057;SDS011;55017;52.848;6.748;2023-03-03T13:44:33;135.02;;;130.52;;
57057;SDS011;55017;52.848;6.748;2023-03-03T13:52:09;133.98;;;129.57;;
57057;SDS011;55017;52.848;6.748;2023-03-03T13:57:17;137.30;;;132.80;;
57057;SDS011;55017;52.848;6.748;2023-03-03T14:05:15;133.10;;;128.75;;
57057;SDS011;55017;52.848;6.748;2023-03-03T14:07:51;131.73;;;127.55;;
57057;SDS011;55017;52.848;6.748;2023-03-03T14:12:52;131.43;;;127.22;;
57057;SDS011;55017;52.848;6.748;2023-03-03T14:15:27;132.30;;;127.95;;
57057;SDS011;55017;52.848;6.748;2023-03-03T14:18:42;132.95;;;128.63;;
57057;SDS011;55017;52.848;6.748;2023-03-03T14:20:52;132.80;;;128.40;;
57057;SDS011;55017;52.848;6.748;2023-03-03T14:23:20;132.25;;;127.95;;
57057;SDS011;55017;52.848;6.748;2023-03-03T14:28:26;133.00;;;128.75;;
57057;SDS011;55017;52.848;6.748;2023-03-03T14:30:54;133.35;;;129.05;;
57057;SDS011;55017;52.848;6.748;2023-03-03T14:33:21;130.55;;;126.18;;
57057;SDS011;55017;52.848;6.748;2023-03-03T14:35:50;130.05;;;125.85;;
57057;SDS011;55017;52.848;6.748;2023-03-03T14:43:33;131.18;;;126.80;;
57057;SDS011;55017;52.848;6.748;2023-03-03T14:48:49;134.95;;;130.57;;
57057;SDS011;55017;52.848;6.748;2023-03-03T14:51:25;129.55;;;125.45;;
57057;SDS011;55017;52.848;6.748;2023-03-03T14:53:53;133.30;;;129.00;;
57057;SDS011;55017;52.848;6.748;2023-03-03T14:56:31;133.98;;;129.48;;
57057;SDS011;55017;52.848;6.748;2023-03-03T15:01:39;132.45;;;128.15;;
57057;SDS011;55017;52.848;6.748;2023-03-03T15:09:29;137.30;;;132.85;;
57057;SDS011;55017;52.848;6.748;2023-03-03T15:12:02;132.80;;;128.35;;
57057;SDS011;55017;52.848;6.748;2023-03-03T15:14:42;130.68;;;126.35;;
57057;SDS011;55017;52.848;6.748;2023-03-03T15:25:45;131.63;;;127.18;;
57057;SDS011;55017;52.848;6.748;2023-03-03T15:27:56;137.30;;;132.50;;
57057;SDS011;55017;52.848;6.748;2023-03-03T15:30:32;136.30;;;131.57;;
57057;SDS011;55017;52.848;6.748;2023-03-03T15:33:13;134.57;;;129.80;;
57057;SDS011;55017;52.848;6.748;2023-03-03T15:35:56;134.32;;;129.50;;
57057;SDS011;55017;52.848;6.748;2023-03-03T15:39:30;136.20;;;131.52;;
57057;SDS011;55017;52.848;6.748;2023-03-03T15:43:52;131.57;;;126.93;;
57057;SDS011;55017;52.848;6.748;2023-03-03T15:46:26;138.95;;;133.70;;
57057;SDS011;55017;52.848;6.748;2023-03-03T15:49:01;134.02;;;129.05;;
57057;SDS011;55017;52.848;6.748;2023-03-03T15:51:48;129.50;;;125.00;;
57057;SDS011;55017;52.848;6.748;2023-03-03T15:54:21;132.73;;;127.50;;
57057;SDS011;55017;52.848;6.748;2023-03-03T15:56:53;136.45;;;131.35;;
57057;SDS011;55017;52.848;6.748;2023-03-03T16:04:26;133.85;;;128.77;;
57057;SDS011;55017;52.848;6.748;2023-03-03T16:06:56;135.18;;;130.02;;
57057;SDS011;55017;52.848;6.748;2023-03-03T16:14:53;135.93;;;130.43;;
57057;SDS011;55017;52.848;6.748;2023-03-03T16:20:02;133.80;;;128.70;;
57057;SDS011;55017;52.848;6.748;2023-03-03T16:25:05;134.13;;;128.98;;
57057;SDS011;55017;52.848;6.748;2023-03-03T16:30:22;134.50;;;129.13;;
57057;SDS011;55017;52.848;6.748;2023-03-03T16:32:52;136.43;;;131.13;;
57057;SDS011;55017;52.848;6.748;2023-03-03T16:40:50;140.45;;;134.65;;
57057;SDS011;55017;52.848;6.748;2023-03-03T16:45:44;133.95;;;128.32;;
57057;SDS011;55017;52.848;6.748;2023-03-03T17:00:59;138.38;;;132.10;;
57057;SDS011;55017;52.848;6.748;2023-03-03T17:03:33;140.80;;;134.40;;
57057;SDS011;55017;52.848;6.748;2023-03-03T17:06:13;140.77;;;134.95;;
57057;SDS011;55017;52.848;6.748;2023-03-03T17:16:36;138.93;;;132.95;;
57057;SDS011;55017;52.848;6.748;2023-03-03T17:24:02;136.90;;;131.52;;
57057;SDS011;55017;52.848;6.748;2023-03-03T17:31:47;138.32;;;132.40;;
57057;SDS011;55017;52.848;6.748;2023-03-03T17:34:26;138.57;;;132.75;;
57057;SDS011;55017;52.848;6.748;2023-03-03T17:42:14;135.48;;;130.23;;
57057;SDS011;55017;52.848;6.748;2023-03-03T17:47:12;138.60;;;132.25;;
57057;SDS011;55017;52.848;6.748;2023-03-03T17:50:02;138.68;;;132.70;;
57057;SDS011;55017;52.848;6.748;2023-03-03T17:52:41;134.73;;;129.63;;
57057;SDS011;55017;52.848;6.748;2023-03-03T18:00:31;139.13;;;133.80;;
57057;SDS011;55017;52.848;6.748;2023-03-03T18:03:04;137.68;;;131.45;;
57057;SDS011;55017;52.848;6.748;2023-03-03T18:10:46;138.43;;;132.90;;
57057;SDS011;55017;52.848;6.748;2023-03-03T18:21:21;137.23;;;131.70;;